Time;durP1;ratioP1;P1;durP2;ratioP2;P2;SDS_P1;SDS_P2;PMS_P1;PMS_P2;Temp;Humidity;BMP_temperature;BMP_pressure;BME280_temperature;BME280_humidity;BME280_pressure;Samples;Min_cycle;Max_cycle;Signal;HPM_P1;HPM_P2
2022/07/04 00:00:53;;;;;;;;;;;;;;;15.18;82.19;99757.87;1708859;83;20236;-61
2022/07/04 00:03:19;;;;;;;;;;;;;;;15.18;82.49;99756.56;1712128;82;21289;-61
2022/07/04 00:05:45;;;;;;;;;;;;;;;15.19;82.51;99755.60;1713217;82;20187;-61
2022/07/04 00:08:12;;;;;;;;;;;;;;;15.17;82.51;99753.53;1713570;81;20456;-60
2022/07/04 00:10:38;;;;;;;;;;;;;;;15.15;82.58;99748.84;1719589;82;20244;-61
2022/07/04 00:13:05;;;;;;;;;;;;;;;15.15;82.59;99752.34;1743187;80;20118;-61
2022/07/04 00:15:33;;;;;;;;;;;;;;;15.14;82.69;99750.63;1725249;81;22553;-61
2022/07/04 00:18:00;;;;;;;;;;;;;;;15.14;82.84;99756.37;1719935;82;20124;-60
2022/07/04 00:20:26;;;;;;;;;;;;;;;15.11;82.76;99752.62;1718128;82;20442;-61
2022/07/04 00:22:52;;;;;;;;;;;;;;;15.08;83.12;99747.57;1717585;83;20297;-60
2022/07/04 00:25:19;;;;;;;;;;;;;;;15.10;83.24;99747.02;1718061;81;20120;-60
2022/07/04 00:27:45;;;;;;;;;;;;;;;15.11;83.32;99739.48;1685592;83;20961;-62
2022/07/04 00:30:12;;;;;;;;;;;;;;;15.09;83.24;99743.98;1704367;82;20332;-60
2022/07/04 00:32:39;;;;;;;;;;;;;;;15.05;83.26;99742.52;1699002;83;20125;-61
2022/07/04 00:35:07;;;;;;;;;;;;;;;15.03;83.34;99741.77;1709429;83;20146;-61
2022/07/04 00:37:33;;;;;;;;;;;;;;;15.00;83.38;99735.75;1705495;83;20213;-60
2022/07/04 00:40:00;;;;;;;;;;;;;;;14.99;83.60;99736.71;1699570;82;21266;-61
2022/07/04 00:42:26;;;;;;;;;;;;;;;15.05;83.79;99737.26;1703525;82;20138;-60
2022/07/04 00:44:52;;;;;;;;;;;;;;;15.04;83.68;99735.55;1702994;83;20144;-60
2022/07/04 00:47:19;;;;;;;;;;;;;;;15.02;83.79;99729.58;1699129;82;20698;-60
2022/07/04 00:49:45;;;;;;;;;;;;;;;15.03;83.95;99731.25;1695054;83;20469;-61
2022/07/04 00:52:12;;;;;;;;;;;;;;;15.03;83.90;99727.30;1697496;83;21141;-60
2022/07/04 00:54:39;;;;;;;;;;;;;;;15.00;83.95;99734.44;1698085;82;20497;-60
2022/07/04 00:57:06;;;;;;;;;;;;;;;14.99;84.08;99727.51;1703542;83;20463;-60
2022/07/04 00:59:33;;;;;;;;;;;;;;;14.97;84.13;99721.50;1698800;82;20500;-60
2022/07/04 01:01:59;;;;;;;;;;;;;;;14.98;84.44;99719.27;1703133;82;20483;-60
2022/07/04 01:04:26;;;;;;;;;;;;;;;14.99;84.40;99715.67;1698583;83;21459;-60
2022/07/04 01:06:53;;;;;;;;;;;;;;;14.97;84.42;99712.30;1707591;82;20227;-60
2022/07/04 01:09:19;;;;;;;;;;;;;;;15.00;84.67;99713.41;1704585;82;20103;-60
2022/07/04 01:11:50;;;;;;;;;;;;;;;15.01;84.51;99707.67;1701605;82;20256;-60
2022/07/04 01:14:17;;;;;;;;;;;;;;;14.98;84.40;99709.19;1701889;82;20152;-60
2022/07/04 01:16:44;;;;;;;;;;;;;;;14.95;84.41;99718.12;1718487;80;21751;-61
2022/07/04 01:19:11;;;;;;;;;;;;;;;14.93;84.53;99712.14;1690671;83;20918;-61
2022/07/04 01:21:37;;;;;;;;;;;;;;;14.91;84.54;99712.70;1736806;80;20215;-60
2022/07/04 01:24:04;;;;;;;;;;;;;;;14.92;84.59;99713.54;1721321;81;21007;-61
2022/07/04 01:26:30;;;;;;;;;;;;;;;14.88;84.59;99712.91;1735422;82;20138;-60
2022/07/04 01:28:57;;;;;;;;;;;;;;;14.85;84.61;99709.17;1730136;81;21599;-61
2022/07/04 01:31:23;;;;;;;;;;;;;;;14.84;84.65;99714.03;1731428;81;20152;-61
2022/07/04 01:33:50;;;;;;;;;;;;;;;14.82;84.78;99712.00;1727715;81;20466;-61
2022/07/04 01:36:16;;;;;;;;;;;;;;;14.80;84.88;99712.56;1722186;81;20127;-61
2022/07/04 01:38:43;;;;;;;;;;;;;;;14.77;84.79;99718.02;1715147;82;20177;-61
2022/07/04 01:41:09;;;;;;;;;;;;;;;14.76;84.88;99716.34;1714995;83;21179;-60
2022/07/04 01:43:36;;;;;;;;;;;;;;;14.75;84.85;99719.89;1720167;83;20361;-61
2022/07/04 01:46:02;;;;;;;;;;;;;;;14.74;85.02;99719.53;1741239;80;20159;-61
2022/07/04 01:48:29;;;;;;;;;;;;;;;14.72;84.92;99717.47;1735706;81;20165;-61
2022/07/04 01:50:55;;;;;;;;;;;;;;;14.71;84.97;99718.42;1735240;80;20438;-61
2022/07/04 01:53:21;;;;;;;;;;;;;;;14.69;84.99;99717.67;1713977;83;23192;-61
2022/07/04 01:55:48;;;;;;;;;;;;;;;14.68;85.13;99723.88;1713573;83;20151;-60
2022/07/04 01:58:14;;;;;;;;;;;;;;;14.68;85.11;99723.88;1710009;83;20202;-60
2022/07/04 02:03:26;;;;;;;;;;;;;;;14.63;85.03;99720.69;1721835;82;20174;-61
2022/07/04 02:05:52;;;;;;;;;;;;;;;14.61;85.13;99727.83;1718010;82;21654;-61
2022/07/04 02:08:18;;;;;;;;;;;;;;;14.57;85.03;99728.97;1712898;82;20174;-60
2022/07/04 02:10:45;;;;;;;;;;;;;;;14.54;85.13;99724.28;1721748;82;20160;-61
2022/07/04 02:13:11;;;;;;;;;;;;;;;14.53;85.18;99724.36;1745942;80;20171;-60
2022/07/04 02:15:40;;;;;;;;;;;;;;;14.54;85.20;99728.22;1734310;81;20267;-60
2022/07/04 02:18:09;;;;;;;;;;;;;;;14.53;85.26;99726.52;1720802;82;21201;-61
2022/07/04 02:20:36;;;;;;;;;;;;;;;14.54;85.26;99725.59;1708769;82;20447;-61
2022/07/04 02:23:04;;;;;;;;;;;;;;;14.54;85.23;99720.34;1729879;80;20567;-61
2022/07/04 02:25:30;;;;;;;;;;;;;;;14.55;85.19;99722.02;1712946;83;20120;-61
2022/07/04 02:27:57;;;;;;;;;;;;;;;14.57;85.18;99723.72;1705074;83;20526;-61
2022/07/04 02:30:24;;;;;;;;;;;;;;;14.62;85.30;99724.24;1708877;83;21267;-62
2022/07/04 02:32:50;;;;;;;;;;;;;;;14.66;85.31;99713.45;1716731;82;20449;-61
2022/07/04 02:35:17;;;;;;;;;;;;;;;14.74;85.30;99707.23;1711109;82;20198;-61
2022/07/04 02:37:44;;;;;;;;;;;;;;;14.81;85.23;99711.61;1731851;80;20498;-61
2022/07/04 02:40:10;;;;;;;;;;;;;;;14.89;85.27;99709.33;1712598;82;20221;-62
2022/07/04 02:42:37;;;;;;;;;;;;;;;14.96;85.19;99707.99;1716298;83;21093;-62
2022/07/04 02:45:04;;;;;;;;;;;;;;;15.06;85.19;99704.75;1707123;83;20180;-61
2022/07/04 02:47:31;;;;;;;;;;;;;;;15.12;85.07;99703.02;1716660;82;20147;-61
2022/07/04 02:49:57;;;;;;;;;;;;;;;15.19;85.02;99708.26;1713291;82;20184;-62
2022/07/04 02:52:24;;;;;;;;;;;;;;;15.30;85.15;99700.50;1699667;83;20243;-61
2022/07/04 02:54:52;;;;;;;;;;;;;;;15.45;85.07;99691.55;1727583;80;21640;-61
2022/07/04 02:57:18;;;;;;;;;;;;;;;15.63;85.11;99699.16;1729821;81;20151;-61
2022/07/04 02:59:45;;;;;;;;;;;;;;;15.83;84.87;99709.19;1699568;83;20148;-61
2022/07/04 03:02:11;;;;;;;;;;;;;;;15.94;84.65;99706.29;1703634;83;20103;-61
2022/07/04 03:04:39;;;;;;;;;;;;;;;16.03;84.65;99709.59;1709010;82;20536;-61
2022/07/04 03:07:07;;;;;;;;;;;;;;;16.43;85.35;99706.75;1713183;82;20718;-61
2022/07/04 03:09:34;;;;;;;;;;;;;;;17.36;85.42;99706.95;1734389;80;20149;-61
2022/07/04 03:12:04;;;;;;;;;;;;;;;18.29;84.65;99707.67;1701348;83;20201;-62
2022/07/04 03:14:30;;;;;;;;;;;;;;;19.06;83.32;99700.62;1720306;82;20123;-62
2022/07/04 03:16:57;;;;;;;;;;;;;;;19.21;82.69;99707.28;1731860;80;20165;-61
2022/07/04 03:19:24;;;;;;;;;;;;;;;19.92;83.37;99700.02;1744027;80;21488;-62
2022/07/04 03:21:50;;;;;;;;;;;;;;;20.97;83.73;99700.41;1733207;80;20147;-62
2022/07/04 03:24:16;;;;;;;;;;;;;;;22.06;82.91;99701.74;1729511;81;20157;-62
2022/07/04 03:26:43;;;;;;;;;;;;;;;22.70;81.84;99700.52;1726245;82;20212;-62
2022/07/04 03:29:10;;;;;;;;;;;;;;;23.47;81.13;99707.05;1727508;82;20147;-62
2022/07/04 03:31:36;;;;;;;;;;;;;;;24.11;79.55;99702.25;1730495;82;21506;-62
2022/07/04 03:34:02;;;;;;;;;;;;;;;24.72;78.57;99703.81;1722279;82;20236;-62
2022/07/04 03:36:29;;;;;;;;;;;;;;;25.13;77.63;99703.86;1721220;82;20445;-62
2022/07/04 03:38:55;;;;;;;;;;;;;;;25.73;77.47;99708.50;1729750;82;21759;-62
2022/07/04 03:41:22;;;;;;;;;;;;;;;26.22;76.48;99700.36;1723855;81;20173;-62
2022/07/04 03:43:48;;;;;;;;;;;;;;;26.52;75.38;99702.73;1723411;81;20921;-63
2022/07/04 03:46:15;;;;;;;;;;;;;;;26.83;75.68;99704.06;1724715;82;20503;-63
2022/07/04 03:48:43;;;;;;;;;;;;;;;27.42;74.50;99708.30;1717914;82;20222;-62
2022/07/04 03:51:11;;;;;;;;;;;;;;;27.41;72.71;99705.28;1722121;81;20431;-62
2022/07/04 03:53:37;;;;;;;;;;;;;;;26.75;71.78;99705.45;1723098;81;20221;-62
2022/07/04 03:56:04;;;;;;;;;;;;;;;25.79;71.56;99705.14;1721828;81;21117;-62
2022/07/04 03:58:31;;;;;;;;;;;;;;;24.82;71.30;99702.84;1724742;81;20161;-63
2022/07/04 04:00:58;;;;;;;;;;;;;;;23.95;71.61;99710.20;1723115;82;20298;-61
2022/07/04 04:06:09;;;;;;;;;;;;;;;22.79;71.97;99710.25;1734048;81;20216;-63
2022/07/04 04:08:35;;;;;;;;;;;;;;;22.32;72.06;99707.73;1733904;82;21107;-61
2022/07/04 04:11:02;;;;;;;;;;;;;;;22.11;72.37;99716.77;1735374;82;20176;-62
2022/07/04 04:13:28;;;;;;;;;;;;;;;22.25;72.63;99709.33;1736932;82;20212;-62
2022/07/04 04:15:58;;;;;;;;;;;;;;;22.76;72.62;99710.55;1732679;82;20122;-62
2022/07/04 04:18:24;;;;;;;;;;;;;;;23.11;71.92;99706.27;1735592;82;20176;-64
2022/07/04 04:20:51;;;;;;;;;;;;;;;23.99;72.48;99704.88;1753402;80;21490;-63
2022/07/04 04:23:18;;;;;;;;;;;;;;;24.90;71.12;99697.48;1754569;80;20787;-63
2022/07/04 04:25:44;;;;;;;;;;;;;;;25.30;70.46;99697.22;1713561;82;20154;-63
2022/07/04 04:28:11;;;;;;;;;;;;;;;25.90;71.14;99696.78;1713495;83;20278;-63
2022/07/04 04:30:38;;;;;;;;;;;;;;;27.13;70.43;99692.10;1742016;80;20185;-63
2022/07/04 04:33:04;;;;;;;;;;;;;;;27.89;69.63;99693.74;1714821;83;21061;-63
2022/07/04 04:35:31;;;;;;;;;;;;;;;28.66;68.66;99689.77;1754728;80;20839;-63
2022/07/04 04:37:58;;;;;;;;;;;;;;;28.53;66.62;99689.61;1716928;82;20172;-63
2022/07/04 04:40:24;;;;;;;;;;;;;;;27.71;66.04;99693.27;1714575;82;20097;-63
2022/07/04 04:42:51;;;;;;;;;;;;;;;26.83;66.03;99698.70;1713291;82;20188;-63
2022/07/04 04:45:17;;;;;;;;;;;;;;;26.22;66.09;99693.16;1723056;81;20852;-63
2022/07/04 04:47:43;;;;;;;;;;;;;;;25.83;65.87;99690.47;1742495;81;20204;-62
2022/07/04 04:50:11;;;;;;;;;;;;;;;25.48;65.94;99688.49;1714111;82;20153;-61
2022/07/04 04:52:38;;;;;;;;;;;;;;;25.37;65.84;99684.83;1716132;82;20238;-61
2022/07/04 04:55:06;;;;;;;;;;;;;;;25.37;66.60;99675.48;1717575;82;20200;-61
2022/07/04 04:57:33;;;;;;;;;;;;;;;26.59;66.90;99681.45;1713528;82;21474;-64
2022/07/04 04:59:59;;;;;;;;;;;;;;;27.97;66.45;99675.89;1736320;81;20096;-64
2022/07/04 05:02:26;;;;;;;;;;;;;;;29.20;65.73;99675.82;1716577;83;20604;-64
2022/07/04 05:04:53;;;;;;;;;;;;;;;30.11;64.21;99674.46;1720137;82;20211;-62
2022/07/04 05:07:20;;;;;;;;;;;;;;;30.74;63.35;99674.77;1716118;83;20213;-62
2022/07/04 05:09:46;;;;;;;;;;;;;;;30.59;62.37;99675.48;1688169;83;21050;-63
2022/07/04 05:12:13;;;;;;;;;;;;;;;30.58;62.14;99669.77;1712716;82;20208;-62
2022/07/04 05:14:39;;;;;;;;;;;;;;;30.89;62.07;99672.77;1745784;80;20118;-63
2022/07/04 05:17:05;;;;;;;;;;;;;;;31.49;61.11;99665.20;1729100;81;20201;-63
2022/07/04 05:19:32;;;;;;;;;;;;;;;31.93;60.73;99667.70;1715227;82;20186;-63
2022/07/04 05:21:58;;;;;;;;;;;;;;;32.47;60.03;99666.47;1709065;82;21033;-63
2022/07/04 05:24:25;;;;;;;;;;;;;;;32.94;58.87;99665.11;1714135;82;20160;-63
2022/07/04 05:26:52;;;;;;;;;;;;;;;33.37;59.61;99660.81;1710501;82;20153;-63
2022/07/04 05:29:18;;;;;;;;;;;;;;;33.96;58.60;99663.97;1704882;83;20225;-63
2022/07/04 05:31:44;;;;;;;;;;;;;;;34.39;57.76;99673.33;1727830;81;20215;-64
2022/07/04 05:34:11;;;;;;;;;;;;;;;34.75;56.78;99669.70;1725312;81;21249;-64
2022/07/04 05:36:38;;;;;;;;;;;;;;;35.13;56.35;99671.77;1721873;81;20250;-66
2022/07/04 05:39:05;;;;;;;;;;;;;;;35.07;54.47;99670.82;1695813;81;20183;-60
2022/07/04 05:41:31;;;;;;;;;;;;;;;35.07;53.83;99663.22;1719785;81;20119;-62
2022/07/04 05:43:58;;;;;;;;;;;;;;;35.06;52.56;99656.12;1720057;81;20168;-61
2022/07/04 05:46:24;;;;;;;;;;;;;;;34.91;52.22;99656.02;1724322;81;21029;-65
2022/07/04 05:48:51;;;;;;;;;;;;;;;34.92;51.69;99663.08;1719424;81;20147;-64
2022/07/04 05:51:19;;;;;;;;;;;;;;;35.02;51.14;99661.70;1727877;81;20093;-67
2022/07/04 05:53:45;;;;;;;;;;;;;;;35.16;50.83;99657.73;1724627;81;20951;-64
2022/07/04 05:56:13;;;;;;;;;;;;;;;35.68;50.24;99657.83;1729019;81;20893;-63
2022/07/04 05:58:40;;;;;;;;;;;;;;;35.98;50.09;99669.88;1737707;81;22756;-64
2022/07/04 06:01:07;;;;;;;;;;;;;;;36.40;49.16;99671.55;1728805;81;20350;-63
2022/07/04 06:03:36;;;;;;;;;;;;;;;36.05;47.06;99665.72;1741801;80;20129;-65
2022/07/04 06:06:03;;;;;;;;;;;;;;;35.53;47.43;99675.13;1711953;83;20137;-64
2022/07/04 06:08:33;;;;;;;;;;;;;;;35.09;46.53;99678.70;1736347;81;20657;-64
2022/07/04 06:11:00;;;;;;;;;;;;;;;34.88;46.03;99674.64;1741048;81;22523;-64
2022/07/04 06:13:27;;;;;;;;;;;;;;;34.83;45.55;99678.05;1705928;83;20304;-63
2022/07/04 06:15:53;;;;;;;;;;;;;;;34.87;45.21;99673.83;1731425;81;20231;-62
2022/07/04 06:18:22;;;;;;;;;;;;;;;35.14;44.90;99676.13;1737932;80;20170;-62
2022/07/04 06:20:48;;;;;;;;;;;;;;;35.17;44.32;99678.37;1700868;82;20178;-62
2022/07/04 06:23:15;;;;;;;;;;;;;;;35.40;44.34;99670.25;1702667;82;21113;-63
2022/07/04 06:25:41;;;;;;;;;;;;;;;35.30;42.92;99675.43;1717577;82;20113;-64
2022/07/04 06:28:08;;;;;;;;;;;;;;;34.93;42.60;99678.31;1702240;82;20372;-64
2022/07/04 06:30:34;;;;;;;;;;;;;;;33.77;41.39;99682.09;1716310;82;21038;-63
2022/07/04 06:33:01;;;;;;;;;;;;;;;32.64;41.60;99678.41;1723975;82;20204;-63
2022/07/04 06:35:45;;;;;;;;;;;;;;;32.00;41.64;99677.44;1715898;82;21467;-63
2022/07/04 06:38:13;;;;;;;;;;;;;;;31.46;41.16;99679.13;1735330;80;20219;-63
2022/07/04 06:40:40;;;;;;;;;;;;;;;30.39;41.11;99674.91;1731287;80;20178;-64
2022/07/04 06:43:07;;;;;;;;;;;;;;;29.56;40.74;99669.47;1726444;80;20440;-63
2022/07/04 06:45:33;;;;;;;;;;;;;;;28.54;41.01;99667.95;1730387;80;20199;-63
2022/07/04 06:48:02;;;;;;;;;;;;;;;27.95;41.67;99673.41;1715498;82;20518;-63
2022/07/04 06:50:32;;;;;;;;;;;;;;;27.74;41.88;99669.27;1715053;81;20173;-63
2022/07/04 06:52:56;;;;;;;;;;;;;;;27.57;42.20;99665.41;1718901;82;20171;-62
2022/07/04 06:55:40;;;;;;;;;;;;;;;27.50;42.48;99660.95;1731535;80;20133;-62
2022/07/04 06:58:08;;;;;;;;;;;;;;;27.29;42.18;99667.88;1729644;80;20219;-62
2022/07/04 07:00:35;;;;;;;;;;;;;;;27.04;42.67;99661.03;1735217;80;21260;-62
2022/07/04 07:03:02;;;;;;;;;;;;;;;26.70;42.72;99659.63;1734109;81;20154;-62
2022/07/04 07:05:30;;;;;;;;;;;;;;;26.37;42.98;99654.44;1700895;83;20216;-62
2022/07/04 07:08:00;;;;;;;;;;;;;;;26.02;43.25;99659.30;1717467;82;20162;-63
2022/07/04 07:10:26;;;;;;;;;;;;;;;25.76;43.55;99660.03;1719000;82;20156;-63
2022/07/04 07:12:53;;;;;;;;;;;;;;;25.44;43.85;99657.77;1719196;81;21827;-64
2022/07/04 07:15:19;;;;;;;;;;;;;;;25.09;44.14;99666.95;1719309;82;20187;-63
2022/07/04 07:17:46;;;;;;;;;;;;;;;24.74;44.52;99659.09;1704582;83;20194;-62
2022/07/04 07:20:13;;;;;;;;;;;;;;;24.43;44.87;99658.02;1725036;81;20299;-63
2022/07/04 07:22:41;;;;;;;;;;;;;;;24.10;45.03;99663.25;1710318;83;20166;-63
2022/07/04 07:25:10;;;;;;;;;;;;;;;23.73;45.39;99669.75;1748970;80;22013;-62
2022/07/04 07:27:39;;;;;;;;;;;;;;;23.43;45.84;99679.85;1721927;81;20224;-63
2022/07/04 07:30:07;;;;;;;;;;;;;;;23.20;46.31;99682.69;1710831;81;20153;-63
2022/07/04 07:32:33;;;;;;;;;;;;;;;22.95;46.53;99683.81;1719203;81;20179;-62
2022/07/04 07:35:00;;;;;;;;;;;;;;;22.76;46.84;99679.44;1739892;81;20432;-63
2022/07/04 07:37:26;;;;;;;;;;;;;;;22.59;47.17;99684.77;1716163;81;21341;-62
2022/07/04 07:39:53;;;;;;;;;;;;;;;22.39;47.51;99676.91;1723555;81;20423;-62
2022/07/04 07:42:24;;;;;;;;;;;;;;;22.20;47.75;99681.01;1711024;81;20131;-62
2022/07/04 07:44:50;;;;;;;;;;;;;;;21.99;48.22;99691.37;1711377;82;20187;-62
2022/07/04 07:47:17;;;;;;;;;;;;;;;21.89;48.68;99689.23;1718190;83;20686;-61
2022/07/04 07:49:44;;;;;;;;;;;;;;;21.87;48.98;99687.20;1745546;80;21303;-62
2022/07/04 07:52:10;;;;;;;;;;;;;;;21.84;49.43;99687.49;1749308;80;20193;-62
2022/07/04 07:54:37;;;;;;;;;;;;;;;21.88;49.76;99689.73;1705221;82;20374;-61
2022/07/04 07:57:04;;;;;;;;;;;;;;;21.96;49.83;99681.03;1741859;80;20193;-62
2022/07/04 07:59:30;;;;;;;;;;;;;;;22.03;49.96;99652.02;1728002;81;20184;-62
2022/07/04 08:01:57;;;;;;;;;;;;;;;21.86;49.98;99619.09;1742091;80;21285;-62
2022/07/04 08:04:37;;;;;;;;;;;;;;;21.58;50.34;99611.09;1711502;81;20162;-62
2022/07/04 08:07:06;;;;;;;;;;;;;;;21.31;50.87;99626.94;1727803;81;20517;-63
2022/07/04 08:09:33;;;;;;;;;;;;;;;21.08;51.00;99649.00;1722047;81;20302;-63
2022/07/04 08:12:02;;;;;;;;;;;;;;;20.91;51.34;99655.36;1738813;80;20223;-62
2022/07/04 08:14:29;;;;;;;;;;;;;;;20.84;51.88;99629.52;1727819;81;21186;-63
2022/07/04 08:16:57;;;;;;;;;;;;;;;20.74;52.13;99646.28;1746810;80;20161;-61
2022/07/04 08:19:25;;;;;;;;;;;;;;;20.76;52.60;99664.23;1729620;82;20198;-61
2022/07/04 08:21:52;;;;;;;;;;;;;;;20.87;52.69;99673.05;1723652;82;20144;-62
2022/07/04 08:24:19;;;;;;;;;;;;;;;20.91;52.83;99666.47;1717149;82;20217;-62
2022/07/04 08:26:47;;;;;;;;;;;;;;;20.88;53.05;99656.14;1743082;80;21331;-62
2022/07/04 08:29:17;;;;;;;;;;;;;;;20.72;53.00;99649.55;1741181;81;20105;-62
2022/07/04 08:31:43;;;;;;;;;;;;;;;20.58;53.35;99658.42;1740825;80;20177;-62
2022/07/04 08:34:10;;;;;;;;;;;;;;;20.48;53.69;99654.41;1718921;81;21054;-63
2022/07/04 08:36:36;;;;;;;;;;;;;;;20.41;53.63;99641.34;1718597;82;20258;-63
2022/07/04 08:39:03;;;;;;;;;;;;;;;20.32;53.85;99633.23;1685179;81;23305;-62
2022/07/04 08:41:33;;;;;;;;;;;;;;;20.20;53.95;99635.66;1716634;82;20147;-63
2022/07/04 08:43:59;;;;;;;;;;;;;;;20.15;54.42;99638.37;1720229;82;20953;-63
2022/07/04 08:46:28;;;;;;;;;;;;;;;20.13;54.58;99621.26;1703938;83;20746;-62
2022/07/04 08:48:56;;;;;;;;;;;;;;;20.07;54.93;99594.81;1740358;80;20502;-62
2022/07/04 08:51:35;;;;;;;;;;;;;;;19.95;55.00;99568.09;1724711;81;21454;-62
2022/07/04 08:54:01;;;;;;;;;;;;;;;19.85;55.42;99564.08;1713374;82;20153;-61
2022/07/04 08:59:15;;;;;;;;;;;;;;;19.91;55.94;99605.09;1719044;82;20105;-60
2022/07/04 09:01:42;;;;;;;;;;;;;;;19.96;56.08;99575.55;1724005;81;20172;-61
2022/07/04 09:04:10;;;;;;;;;;;;;;;19.95;55.97;99560.63;1711248;82;21087;-62
2022/07/04 09:06:37;;;;;;;;;;;;;;;19.97;55.67;99539.65;1736133;80;20579;-61
2022/07/04 09:09:03;;;;;;;;;;;;;;;20.10;56.02;99549.48;1748288;80;20201;-61
2022/07/04 09:11:30;;;;;;;;;;;;;;;20.28;56.23;99574.84;1718159;81;20091;-61
2022/07/04 09:13:58;;;;;;;;;;;;;;;20.46;56.27;99586.91;1721777;81;20135;-62
2022/07/04 09:16:24;;;;;;;;;;;;;;;20.65;56.65;99607.34;1740928;80;21421;-62
2022/07/04 09:18:54;;;;;;;;;;;;;;;20.75;56.51;99616.14;1695294;82;20167;-62
2022/07/04 09:21:21;;;;;;;;;;;;;;;20.82;56.62;99613.75;1713923;82;20198;-62
2022/07/04 09:23:50;;;;;;;;;;;;;;;20.90;56.68;99619.69;1701068;81;20461;-62
2022/07/04 09:26:20;;;;;;;;;;;;;;;20.95;56.79;99621.44;1728604;82;20608;-61
2022/07/04 09:28:57;;;;;;;;;;;;;;;20.99;56.69;99626.80;1725199;82;21084;-61
2022/07/04 09:31:28;;;;;;;;;;;;;;;20.99;56.74;99634.77;1730185;82;20143;-61
2022/07/04 09:33:59;;;;;;;;;;;;;;;20.97;56.85;99648.66;1729661;82;20163;-61
2022/07/04 09:36:28;;;;;;;;;;;;;;;21.02;56.73;99649.07;1730100;82;20186;-60
2022/07/04 09:39:15;;;;;;;;;;;;;;;21.04;56.90;99659.06;1729516;82;20104;-61
2022/07/04 09:41:59;;;;;;;;;;;;;;;21.19;57.28;99661.62;1723244;82;21091;-62
2022/07/04 09:44:29;;;;;;;;;;;;;;;21.53;57.19;99671.78;1726814;81;20154;-62
2022/07/04 09:46:59;;;;;;;;;;;;;;;21.80;57.31;99676.33;1730899;81;20216;-62
2022/07/04 09:49:25;;;;;;;;;;;;;;;22.03;57.18;99666.14;1731847;82;20139;-61
2022/07/04 09:51:53;;;;;;;;;;;;;;;22.27;57.45;99677.61;1729890;82;20144;-62
2022/07/04 09:54:26;;;;;;;;;;;;;;;22.60;57.06;99683.77;1729744;82;21813;-62
2022/07/04 09:56:54;;;;;;;;;;;;;;;22.74;56.96;99677.92;1726484;82;20246;-62
2022/07/04 09:59:23;;;;;;;;;;;;;;;22.86;56.90;99674.06;1730441;82;20154;-63
2022/07/04 10:04:44;;;;;;;;;;;;;;;23.68;56.36;99668.02;1759007;79;20176;-63
2022/07/04 10:07:10;;;;;;;;;;;;;;;23.76;56.06;99669.43;1752720;79;21096;-63
2022/07/04 10:09:36;;;;;;;;;;;;;;;23.69;55.80;99671.02;1764412;79;20482;-63
2022/07/04 10:12:04;;;;;;;;;;;;;;;23.49;55.29;99671.73;1754930;79;20220;-62
2022/07/04 10:14:30;;;;;;;;;;;;;;;23.31;55.54;99671.79;1763175;79;20706;-63
2022/07/04 10:16:57;;;;;;;;;;;;;;;23.22;56.17;99671.40;1760015;79;20436;-63
2022/07/04 10:19:24;;;;;;;;;;;;;;;23.50;56.14;99669.89;1771960;79;21084;-63
2022/07/04 10:21:51;;;;;;;;;;;;;;;23.78;56.24;99663.92;1763431;79;20427;-62
2022/07/04 10:24:17;;;;;;;;;;;;;;;24.08;56.13;99658.06;1754590;79;20176;-63
2022/07/04 10:26:44;;;;;;;;;;;;;;;24.09;55.78;99658.92;1766685;79;20181;-62
2022/07/04 10:29:12;;;;;;;;;;;;;;;24.21;55.56;99657.62;1765073;79;20177;-62
2022/07/04 10:31:38;;;;;;;;;;;;;;;24.36;55.51;99655.16;1768480;79;21064;-62
2022/07/04 10:34:05;;;;;;;;;;;;;;;24.40;55.24;99658.35;1759130;79;20125;-62
2022/07/04 10:36:31;;;;;;;;;;;;;;;24.54;55.82;99645.23;1763720;79;20432;-63
2022/07/04 10:39:00;;;;;;;;;;;;;;;25.06;56.02;99654.77;1774731;79;20323;-62
2022/07/04 10:41:29;;;;;;;;;;;;;;;25.56;55.96;99648.89;1762275;79;20152;-62
2022/07/04 10:44:00;;;;;;;;;;;;;;;25.91;55.34;99648.98;1760402;79;21478;-63
2022/07/04 10:46:32;;;;;;;;;;;;;;;26.14;54.99;99649.55;1704746;81;20153;-62
2022/07/04 10:49:08;;;;;;;;;;;;;;;26.30;54.74;99645.46;1712354;82;20233;-62
2022/07/04 10:51:38;;;;;;;;;;;;;;;26.23;54.11;99641.81;1759338;79;20119;-64
2022/07/04 10:54:11;;;;;;;;;;;;;;;26.38;54.23;99648.06;1763941;79;20159;-62
2022/07/04 10:56:43;;;;;;;;;;;;;;;26.42;53.62;99646.72;1752949;81;21101;-62
2022/07/04 10:59:16;;;;;;;;;;;;;;;26.39;52.57;99643.56;1753570;80;20090;-63
2022/07/04 11:02:03;;;;;;;;;;;;;;;26.27;53.11;99643.11;1751579;80;20181;-64
2022/07/04 11:05:05;;;;;;;;;;;;;;;26.42;52.40;99649.39;1738537;81;20171;-63
2022/07/04 11:07:41;;;;;;;;;;;;;;;26.32;52.17;99642.08;1771198;79;20186;-64
2022/07/04 11:12:59;;;;;;;;;;;;;;;26.10;51.85;99636.53;1766444;79;20150;-64
2022/07/04 11:15:29;;;;;;;;;;;;;;;26.11;52.05;99638.70;1769442;79;20173;-62
2022/07/04 11:18:05;;;;;;;;;;;;;;;26.29;51.93;99643.77;1769400;79;20548;-63
2022/07/04 11:20:53;;;;;;;;;;;;;;;26.41;51.93;99634.35;1801773;78;20159;-63
2022/07/04 11:23:20;;;;;;;;;;;;;;;26.42;51.49;99638.69;1797516;78;21882;-62
2022/07/04 11:25:54;;;;;;;;;;;;;;;26.35;51.24;99648.41;1801743;78;20082;-61
2022/07/04 11:28:34;;;;;;;;;;;;;;;26.42;51.36;99642.70;1793942;78;20501;-62
2022/07/04 11:31:00;;;;;;;;;;;;;;;26.49;51.28;99638.29;1793262;78;20216;-61
2022/07/04 11:33:29;;;;;;;;;;;;;;;26.64;51.24;99639.75;1797859;78;20082;-61
2022/07/04 11:36:07;;;;;;;;;;;;;;;26.78;51.01;99640.31;1796882;78;21159;-62
2022/07/04 11:38:56;;;;;;;;;;;;;;;26.99;51.05;99638.28;1794185;78;20248;-62
2022/07/04 11:47:12;;;;;;;;;;;;;;;26.63;50.10;99639.91;1798835;78;20130;-61
2022/07/04 11:49:44;;;;;;;;;;;;;;;26.56;49.74;99639.29;1751833;81;21154;-62
2022/07/04 11:52:11;;;;;;;;;;;;;;;26.48;49.58;99639.82;1793801;78;20285;-62
2022/07/04 11:54:40;;;;;;;;;;;;;;;26.68;50.22;99640.22;1794123;78;20425;-63
2022/07/04 11:57:26;;;;;;;;;;;;;;;27.05;50.04;99638.58;1799455;78;20736;-64
2022/07/04 11:59:55;;;;;;;;;;;;;;;27.35;49.98;99634.97;1796665;78;20192;-63
2022/07/04 12:02:21;;;;;;;;;;;;;;;27.77;49.83;99625.45;1796711;78;21899;-62
2022/07/04 12:04:47;;;;;;;;;;;;;;;28.11;49.96;99621.36;1799577;78;20175;-62
2022/07/04 12:07:15;;;;;;;;;;;;;;;28.28;49.41;99632.19;1798103;78;20374;-61
2022/07/04 12:09:44;;;;;;;;;;;;;;;28.13;49.25;99627.38;1794500;78;20899;-62
2022/07/04 12:12:13;;;;;;;;;;;;;;;27.99;48.35;99630.41;1795638;78;20085;-62
2022/07/04 12:14:40;;;;;;;;;;;;;;;27.56;48.02;99629.38;1793973;78;22754;-61
2022/07/04 12:17:20;;;;;;;;;;;;;;;27.31;48.13;99636.36;1768892;78;20121;-61
2022/07/04 12:21:21;;;;;;;4.00;1.00;;;;;;;27.31;48.80;99628.32;1874384;74;21973;-63
2022/07/04 12:23:53;;;;;;;21.62;2.70;;;;;;;27.31;48.84;99628.32;1833681;77;21022;-61
2022/07/04 12:26:20;;;;;;;5.17;1.47;;;;;;;27.33;48.62;99623.59;1838200;75;21583;-62
2022/07/04 12:28:56;;;;;;;19.20;2.27;;;;;;;27.43;48.63;99626.84;1817440;77;21188;-62
2022/07/04 12:31:45;;;;;;;2.98;1.40;;;;;;;27.44;48.44;99625.81;1844831;75;21569;-62
2022/07/04 12:34:17;;;;;;;4.00;1.20;;;;;;;27.11;47.95;99638.70;1842772;76;22057;-61
2022/07/04 12:36:53;;;;;;;4.72;1.45;;;;;;;26.79;47.82;99637.11;1845286;77;21008;-62
2022/07/04 12:39:43;;;;;;;1.40;1.07;;;;;;;26.69;47.65;99635.17;1850209;77;22033;-62
2022/07/04 12:42:17;;;;;;;3.15;1.10;;;;;;;26.67;48.09;99635.87;1842055;75;21037;-63
2022/07/04 12:44:45;;;;;;;;;;;;;;;26.81;47.94;99632.42;1847589;76;21057;-63
2022/07/04 12:47:15;;;;;;;3.27;1.50;;;;;;;26.47;47.38;99636.31;1847004;75;20380;-61
2022/07/04 12:49:46;;;;;;;11.08;2.00;;;;;;;26.16;47.91;99624.77;1817580;77;21069;-62
2022/07/04 12:52:18;;;;;;;14.00;2.00;;;;;;;26.04;48.01;99622.48;1844325;77;21934;-63
2022/07/04 12:54:48;;;;;;;3.30;1.72;;;;;;;25.38;48.17;99618.38;1848709;75;21424;-62
2022/07/04 12:57:18;;;;;;;2.85;1.70;;;;;;;24.93;48.84;99622.41;1838339;76;21016;-62
2022/07/04 12:59:44;;;;;;;2.17;1.35;;;;;;;25.00;49.66;99621.55;1849935;76;21060;-63
2022/07/04 13:02:13;;;;;;;5.87;1.90;;;;;;;25.29;50.17;99636.73;1843657;77;26425;-62
2022/07/04 13:04:40;;;;;;;7.28;1.67;;;;;;;25.20;51.26;99635.41;1842289;76;21002;-61
2022/07/04 13:07:17;;;;;;;4.42;1.50;;;;;;;24.98;51.23;99638.73;1839987;77;28247;-63